Time;durP1;ratioP1;P1;durP2;ratioP2;P2;SDS_P1;SDS_P2;PMS_P1;PMS_P2;Temp;Humidity;BMP_temperature;BMP_pressure;BME280_temperature;BME280_humidity;BME280_pressure;Samples;Min_cycle;Max_cycle;Signal;HPM_P1;HPM_P2
2024/04/08 00:01:46;;;;;;;8.07;2.95;;;;;;;17.37;100.00;99780.47;7388039;19;20007;-74
2024/04/08 00:04:11;;;;;;;9.07;3.30;;;;;;;17.40;100.00;99776.69;7387089;19;20011;-75
2024/04/08 00:06:37;;;;;;;7.28;3.30;;;;;;;17.50;100.00;99773.09;7390526;19;20015;-76
2024/04/08 00:09:03;;;;;;;6.35;2.95;;;;;;;17.62;100.00;99781.94;7392641;19;20031;-73
2024/04/08 00:11:29;;;;;;;10.73;3.60;;;;;;;17.54;100.00;99771.00;7389548;19;20475;-75
2024/04/08 00:13:55;;;;;;;8.43;3.42;;;;;;;17.30;100.00;99752.56;7387078;19;20014;-74
2024/04/08 00:16:23;;;;;;;7.45;3.42;;;;;;;17.48;100.00;99755.47;7389941;19;20471;-74
2024/04/08 00:18:48;;;;;;;13.63;3.38;;;;;;;17.20;100.00;99714.16;7392896;19;20007;-74
2024/04/08 00:21:14;;;;;;;11.63;3.25;;;;;;;17.40;100.00;99739.22;7391841;19;20024;-74
2024/04/08 00:23:40;;;;;;;9.45;3.30;;;;;;;17.42;100.00;99723.88;7388090;19;20044;-74
2024/04/08 00:26:06;;;;;;;13.38;3.30;;;;;;;17.35;100.00;99728.06;7393586;19;20022;-76
2024/04/08 00:28:33;;;;;;;10.27;3.33;;;;;;;17.58;100.00;99747.50;7390753;19;20018;-76
2024/04/08 00:31:04;;;;;;;9.93;3.00;;;;;;;17.67;100.00;99793.09;7390450;19;20150;-75
2024/04/08 00:33:33;;;;;;;6.78;3.03;;;;;;;17.59;100.00;99750.06;7391164;19;20099;-75
2024/04/08 00:36:00;;;;;;;7.53;2.87;;;;;;;17.64;100.00;99750.53;7396098;19;20014;-74
2024/04/08 00:38:27;;;;;;;9.35;3.50;;;;;;;17.38;100.00;99696.53;7371729;19;20095;-74
2024/04/08 00:40:53;;;;;;;10.00;3.08;;;;;;;17.54;100.00;99704.94;7389706;19;20031;-76
2024/04/08 00:43:19;;;;;;;9.35;3.03;;;;;;;17.73;100.00;99739.03;7364705;19;20019;-74
2024/04/08 00:45:46;;;;;;;10.77;2.75;;;;;;;17.55;100.00;99705.78;7389893;19;20010;-75
2024/04/08 00:48:13;;;;;;;6.13;2.83;;;;;;;16.99;100.00;99620.56;7390579;19;20015;-75
2024/04/08 00:50:41;;;;;;;11.07;3.38;;;;;;;17.64;100.00;99729.09;7388933;19;20014;-75
2024/04/08 00:53:12;;;;;;;9.85;3.10;;;;;;;17.09;100.00;99645.53;7386141;19;20013;-76
2024/04/08 00:55:38;;;;;;;10.52;3.35;;;;;;;17.17;100.00;99683.16;7386610;19;20006;-76
2024/04/08 00:58:04;;;;;;;11.80;3.22;;;;;;;17.46;100.00;99744.06;7389868;19;20031;-74
2024/04/08 01:00:30;;;;;;;10.80;3.33;;;;;;;17.44;100.00;99735.31;7388288;19;20011;-75
2024/04/08 01:02:58;;;;;;;13.40;3.15;;;;;;;17.39;100.00;99742.88;7387105;19;20014;-74
2024/04/08 01:05:27;;;;;;;9.73;3.03;;;;;;;17.40;100.00;99758.81;7391612;19;20010;-75
2024/04/08 01:07:52;;;;;;;12.25;3.53;;;;;;;17.08;100.00;99715.22;7392512;19;20027;-74
2024/04/08 01:10:19;;;;;;;6.57;3.05;;;;;;;17.36;100.00;99783.28;7391491;19;20029;-74
2024/04/08 01:12:47;;;;;;;8.15;3.45;;;;;;;17.30;100.00;99775.78;7384144;19;20025;-76
2024/04/08 01:15:15;;;;;;;10.57;3.50;;;;;;;17.09;100.00;99746.34;7385476;19;20668;-74
2024/04/08 01:17:40;;;;;;;8.98;3.30;;;;;;;17.07;100.00;99757.16;7387840;19;20007;-74
2024/04/08 01:20:10;;;;;;;10.35;3.80;;;;;;;17.02;100.00;99756.69;7398678;19;20038;-76
2024/04/08 01:22:36;;;;;;;10.18;3.55;;;;;;;17.08;100.00;99772.22;7389080;19;20017;-73
2024/04/08 01:25:04;;;;;;;8.05;2.85;;;;;;;16.87;100.00;99735.72;7386810;19;20782;-75
2024/04/08 01:27:30;;;;;;;9.32;3.25;;;;;;;16.56;100.00;99686.59;7390013;19;20045;-75
2024/04/08 01:29:58;;;;;;;12.40;3.03;;;;;;;16.87;100.00;99744.59;7391224;19;20030;-74
2024/04/08 01:32:24;;;;;;;11.85;3.60;;;;;;;16.82;100.00;99752.16;7388435;19;20015;-75
2024/04/08 01:34:49;;;;;;;7.85;3.28;;;;;;;16.66;100.00;99725.84;7384711;19;20489;-73
2024/04/08 01:37:16;;;;;;;9.07;3.38;;;;;;;16.70;100.00;99737.13;7388272;19;20023;-74
2024/04/08 01:39:41;;;;;;;8.07;2.92;;;;;;;16.73;100.00;99743.06;7389898;19;20010;-75
2024/04/08 01:42:07;;;;;;;9.32;3.35;;;;;;;16.85;100.00;99754.56;7400514;19;20018;-75
2024/04/08 01:44:34;;;;;;;8.32;3.22;;;;;;;16.60;100.00;99696.91;7410484;19;20013;-74
2024/04/08 01:46:59;;;;;;;8.65;3.53;;;;;;;16.89;100.00;99733.78;7412894;19;20010;-74
2024/04/08 01:49:27;;;;;;;11.45;3.58;;;;;;;16.77;100.00;99706.25;7411221;19;20006;-74
2024/04/08 01:51:54;;;;;;;10.48;3.50;;;;;;;16.90;100.00;99741.66;7392117;19;20165;-75
2024/04/08 01:54:28;;;;;;;9.07;2.88;;;;;;;16.99;100.00;99754.28;7386645;19;20006;-75
2024/04/08 01:56:54;;;;;;;7.93;3.17;;;;;;;16.72;100.00;99725.31;7390911;19;20006;-75
2024/04/08 01:59:19;;;;;;;8.30;3.00;;;;;;;16.87;100.00;99741.91;7390463;19;20019;-74
2024/04/08 02:01:45;;;;;;;6.18;2.75;;;;;;;16.74;100.00;99707.34;7387732;19;20483;-74
2024/04/08 02:04:10;;;;;;;6.55;3.08;;;;;;;16.88;100.00;99730.25;7385882;19;20022;-75
2024/04/08 02:06:36;;;;;;;7.63;3.30;;;;;;;16.90;100.00;99706.06;7389641;19;20082;-74
2024/04/08 02:09:02;;;;;;;9.05;3.10;;;;;;;16.77;100.00;99682.19;7390374;19;20514;-74
2024/04/08 02:11:27;;;;;;;10.38;3.22;;;;;;;16.96;100.00;99749.19;7384379;19;20122;-74
2024/04/08 02:13:53;;;;;;;10.35;3.50;;;;;;;17.07;100.00;99780.38;7382238;19;20023;-74
2024/04/08 02:16:18;;;;;;;9.90;3.40;;;;;;;17.07;100.00;99786.59;7388010;19;20495;-73
2024/04/08 02:18:43;;;;;;;6.93;3.42;;;;;;;16.99;100.00;99770.34;7387770;19;20010;-75
2024/04/08 02:21:12;;;;;;;8.93;2.85;;;;;;;17.07;100.00;99778.56;7387670;19;20102;-75
2024/04/08 02:23:38;;;;;;;6.60;3.10;;;;;;;17.06;100.00;99774.19;7383556;19;20047;-74
2024/04/08 02:26:04;;;;;;;10.75;3.35;;;;;;;16.80;100.00;99716.69;7381493;19;20011;-75
2024/04/08 02:28:30;;;;;;;8.77;3.10;;;;;;;17.16;100.00;99769.75;7386739;19;20014;-74
2024/04/08 02:31:03;;;;;;;9.43;3.63;;;;;;;17.07;100.00;99741.09;7377234;19;20014;-75
2024/04/08 02:33:34;;;;;;;9.52;3.58;;;;;;;17.10;100.00;99761.41;7382750;19;20885;-76
2024/04/08 02:36:03;;;;;;;10.05;3.47;;;;;;;16.97;100.00;99745.53;7383289;19;20150;-76
2024/04/08 02:38:32;;;;;;;9.77;3.45;;;;;;;17.10;100.00;99740.00;7386705;19;20014;-74
2024/04/08 02:40:58;;;;;;;8.90;3.15;;;;;;;16.87;100.00;99660.84;7383715;19;20007;-74
2024/04/08 02:43:23;;;;;;;8.70;3.25;;;;;;;17.11;100.00;99680.19;7352267;19;20021;-73
2024/04/08 02:45:49;;;;;;;9.38;3.17;;;;;;;17.03;100.00;99723.63;7384103;19;20038;-75
2024/04/08 02:48:17;;;;;;;11.93;3.90;;;;;;;16.68;100.00;99667.75;7384895;19;20113;-74
2024/04/08 02:50:42;;;;;;;6.40;3.33;;;;;;;16.91;100.00;99711.28;7384087;19;20017;-74
2024/04/08 02:53:08;;;;;;;14.20;3.67;;;;;;;16.94;100.00;99716.38;7386775;19;20006;-74
2024/04/08 02:55:33;;;;;;;12.95;3.80;;;;;;;17.03;100.00;99776.25;7382780;19;20006;-74
2024/04/08 02:57:59;;;;;;;7.70;3.30;;;;;;;17.02;100.00;99761.19;7383973;19;20018;-76
2024/04/08 03:00:25;;;;;;;9.65;3.15;;;;;;;16.89;100.00;99747.13;7385345;19;20038;-74
2024/04/08 03:02:50;;;;;;;9.13;3.53;;;;;;;17.09;100.00;99773.94;7385308;19;20011;-74
2024/04/08 03:05:16;;;;;;;7.38;3.20;;;;;;;17.17;100.00;99744.69;7380908;19;20021;-75
2024/04/08 03:07:41;;;;;;;10.75;3.38;;;;;;;17.16;100.00;99715.38;7384758;19;20443;-73
2024/04/08 03:10:07;;;;;;;7.85;3.28;;;;;;;17.34;100.00;99737.06;7384692;19;20419;-73
2024/04/08 03:12:33;;;;;;;9.90;3.22;;;;;;;17.06;100.00;99680.56;7384271;19;20003;-73
2024/04/08 03:14:59;;;;;;;8.63;3.28;;;;;;;16.95;100.00;99675.28;7380368;19;20006;-75
2024/04/08 03:17:24;;;;;;;15.32;3.40;;;;;;;17.21;100.00;99731.06;7385036;19;20002;-75
2024/04/08 03:19:55;;;;;;;13.10;3.45;;;;;;;17.27;100.00;99747.47;7385468;19;20006;-75
2024/04/08 03:22:21;;;;;;;12.45;3.85;;;;;;;17.11;100.00;99731.00;7382435;19;20031;-74
2024/04/08 03:24:47;;;;;;;11.57;3.42;;;;;;;16.75;100.00;99686.78;7380558;19;20349;-74
2024/04/08 03:27:12;;;;;;;9.65;3.50;;;;;;;17.15;100.00;99765.41;7386051;19;20011;-74
2024/04/08 03:29:38;;;;;;;9.45;3.42;;;;;;;17.12;100.00;99754.09;7385002;19;20023;-75
2024/04/08 03:32:04;;;;;;;11.95;3.95;;;;;;;16.92;100.00;99651.47;7384028;19;20006;-75
2024/04/08 03:34:35;;;;;;;13.80;4.07;;;;;;;17.06;100.00;99726.03;7380714;19;20313;-76
2024/04/08 03:37:03;;;;;;;9.45;3.15;;;;;;;17.07;100.00;99777.72;7389983;19;20007;-76
2024/04/08 03:39:29;;;;;;;10.10;2.95;;;;;;;16.98;100.00;99776.66;7394324;19;20018;-74
2024/04/08 03:41:55;;;;;;;11.07;3.63;;;;;;;16.88;100.00;99765.00;7390123;19;20014;-76
2024/04/08 03:44:21;;;;;;;12.50;4.07;;;;;;;16.88;100.00;99769.50;7385035;19;20023;-74
2024/04/08 03:46:49;;;;;;;10.85;3.53;;;;;;;16.69;100.00;99740.75;7389845;19;20501;-73
2024/04/08 03:49:15;;;;;;;9.00;3.92;;;;;;;16.60;100.00;99722.78;7392302;19;20047;-74
2024/04/08 03:51:45;;;;;;;10.88;3.83;;;;;;;16.76;100.00;99758.00;7388604;19;20006;-74
2024/04/08 03:54:11;;;;;;;7.95;3.50;;;;;;;16.55;100.00;99738.34;7387318;19;20007;-75
2024/04/08 03:56:36;;;;;;;13.88;4.00;;;;;;;16.50;100.00;99744.09;7389020;19;20466;-73
2024/04/08 03:59:02;;;;;;;10.38;3.50;;;;;;;16.36;100.00;99745.22;7391402;19;20125;-75
2024/04/08 04:01:27;;;;;;;10.68;3.95;;;;;;;16.27;100.00;99732.59;7387290;19;20007;-74
2024/04/08 04:03:53;;;;;;;11.40;4.20;;;;;;;16.14;100.00;99718.53;7388802;19;20026;-74
2024/04/08 04:06:18;;;;;;;12.30;4.75;;;;;;;16.19;100.00;99732.38;7390101;19;20030;-74
2024/04/08 04:08:44;;;;;;;11.48;3.60;;;;;;;16.16;100.00;99721.94;7392774;19;20046;-74
2024/04/08 04:11:10;;;;;;;10.05;3.35;;;;;;;16.31;100.00;99765.25;7391589;19;20022;-74
2024/04/08 04:13:36;;;;;;;8.60;4.28;;;;;;;16.22;100.00;99753.47;7390557;19;20022;-75
2024/04/08 04:16:03;;;;;;;10.32;4.18;;;;;;;16.27;100.00;99770.00;7388859;19;20026;-76
2024/04/08 04:18:28;;;;;;;6.85;3.88;;;;;;;16.21;100.00;99775.84;7393279;19;20025;-74
2024/04/08 04:20:54;;;;;;;9.40;3.92;;;;;;;16.18;100.00;99776.09;7390006;19;20134;-75
2024/04/08 04:23:22;;;;;;;9.35;4.20;;;;;;;16.18;100.00;99789.44;7392272;19;20070;-74
2024/04/08 04:25:52;;;;;;;8.13;3.25;;;;;;;16.17;100.00;99787.75;7387797;19;20517;-75
2024/04/08 04:28:18;;;;;;;;;;;;;;;16.13;100.00;99792.47;7373388;19;20010;-74
2024/04/08 04:30:57;;;;;;;9.05;3.97;;;;;;;15.90;100.00;99765.91;7395306;19;19933;-74
2024/04/08 04:33:24;;;;;;;10.10;4.20;;;;;;;15.80;100.00;99771.09;7393985;19;20031;-76
2024/04/08 04:35:58;;;;;;;10.68;4.38;;;;;;;15.96;100.00;99805.44;7388108;19;20006;-75
2024/04/08 04:38:24;;;;;;;8.93;4.00;;;;;;;15.90;100.00;99787.25;7388996;19;20002;-74
2024/04/08 04:41:04;;;;;;;9.50;4.75;;;;;;;15.77;100.00;99772.19;7389129;19;20373;-74
2024/04/08 04:43:30;;;;;;;10.43;4.30;;;;;;;15.73;100.00;99773.41;7390419;19;20114;-75
2024/04/08 04:45:57;;;;;;;12.38;4.57;;;;;;;15.65;100.00;99775.81;7386879;19;20363;-75
2024/04/08 04:48:23;;;;;;;11.35;4.20;;;;;;;15.42;100.00;99734.03;7389874;19;20010;-80
2024/04/08 04:50:49;;;;;;;10.50;4.28;;;;;;;15.49;100.00;99737.91;7391238;19;20467;-74
2024/04/08 04:53:14;;;;;;;11.00;4.60;;;;;;;15.74;100.00;99784.94;7391462;19;20016;-75
2024/04/08 04:55:40;;;;;;;10.20;4.40;;;;;;;15.68;100.00;99764.06;7367351;19;20379;-75
2024/04/08 04:58:06;;;;;;;7.70;4.00;;;;;;;15.86;100.00;99793.81;7391058;19;20019;-73
2024/04/08 05:00:34;;;;;;;8.32;4.05;;;;;;;15.76;100.00;99780.31;7390251;19;20006;-74
2024/04/08 05:03:00;;;;;;;11.00;4.00;;;;;;;15.94;100.00;99818.06;7388522;19;20014;-74
2024/04/08 05:05:26;;;;;;;8.88;4.25;;;;;;;15.86;100.00;99810.66;7384035;19;20299;-74
2024/04/08 05:07:52;;;;;;;12.05;4.18;;;;;;;15.57;100.00;99777.38;7390945;19;20669;-75
2024/04/08 05:10:17;;;;;;;10.98;3.88;;;;;;;15.46;100.00;99767.50;7389942;19;20810;-75
2024/04/08 05:12:43;;;;;;;10.40;3.60;;;;;;;15.26;100.00;99734.38;7391215;19;20058;-74
2024/04/08 05:15:09;;;;;;;11.60;4.00;;;;;;;15.37;100.00;99755.72;7383870;19;20571;-73
2024/04/08 05:17:34;;;;;;;13.55;3.40;;;;;;;15.16;100.00;99720.00;7387047;19;20041;-74
2024/04/08 05:20:03;;;;;;;11.02;3.83;;;;;;;15.41;100.00;99769.69;7390066;19;20044;-74
2024/04/08 05:22:29;;;;;;;10.60;4.38;;;;;;;15.51;100.00;99783.16;7382716;19;20011;-73
2024/04/08 05:24:55;;;;;;;10.00;3.60;;;;;;;15.31;100.00;99764.19;7386740;19;20017;-74
2024/04/08 05:27:21;;;;;;;8.20;3.75;;;;;;;15.44;100.00;99786.28;7389479;19;20054;-74
2024/04/08 05:29:46;;;;;;;14.55;4.32;;;;;;;15.13;100.00;99722.91;7389382;19;20006;-75
2024/04/08 05:32:15;;;;;;;11.00;3.95;;;;;;;15.52;100.00;99804.38;7387001;19;20627;-75
2024/04/08 05:34:40;;;;;;;12.70;4.03;;;;;;;15.45;100.00;99789.78;7385056;19;20018;-70
2024/04/08 05:37:06;;;;;;;11.43;4.63;;;;;;;15.58;100.00;99817.31;7389548;19;20010;-69
2024/04/08 05:39:31;;;;;;;11.55;4.65;;;;;;;15.64;100.00;99811.47;7387312;19;20010;-71
2024/04/08 05:41:57;;;;;;;12.57;4.32;;;;;;;15.48;100.00;99773.56;7381611;19;20634;-69
2024/04/08 05:44:23;;;;;;;10.02;4.20;;;;;;;15.54;100.00;99770.44;7384275;19;20786;-69
2024/04/08 05:46:48;;;;;;;14.75;4.63;;;;;;;15.67;100.00;99787.22;7364133;19;20014;-68
2024/04/08 05:49:14;;;;;;;12.00;4.30;;;;;;;15.75;100.00;99798.13;7391570;19;20034;-70
2024/04/08 05:51:42;;;;;;;11.85;4.47;;;;;;;15.67;100.00;99776.53;7390519;19;20023;-69
2024/04/08 05:54:08;;;;;;;19.30;4.80;;;;;;;15.62;100.00;99767.19;7389748;19;20010;-69
2024/04/08 05:56:33;;;;;;;12.70;4.00;;;;;;;15.77;100.00;99796.19;7381421;19;20011;-69
2024/04/08 05:58:59;;;;;;;12.82;4.45;;;;;;;15.89;100.00;99801.56;7387899;19;20041;-69
2024/04/08 06:01:25;;;;;;;14.95;4.53;;;;;;;15.88;100.00;99792.72;7383379;19;20142;-69
2024/04/08 06:03:51;;;;;;;11.88;4.63;;;;;;;15.79;100.00;99775.59;7386785;19;20014;-69
2024/04/08 06:06:17;;;;;;;14.55;4.68;;;;;;;16.06;100.00;99803.75;7381479;19;20325;-69
2024/04/08 06:08:43;;;;;;;12.90;4.80;;;;;;;16.09;100.00;99801.69;7386321;19;20017;-69
2024/04/08 06:11:09;;;;;;;11.43;4.97;;;;;;;16.09;100.00;99790.16;7382695;19;20344;-70
2024/04/08 06:13:34;;;;;;;14.32;4.63;;;;;;;16.13;100.00;99792.47;7384092;19;20844;-69
2024/04/08 06:16:00;;;;;;;15.65;5.32;;;;;;;16.14;100.00;99785.31;7380832;19;20072;-70
2024/04/08 06:18:25;;;;;;;14.82;6.18;;;;;;;16.25;100.00;99805.81;7385604;19;20021;-69
2024/04/08 06:20:58;;;;;;;15.50;5.63;;;;;;;16.23;100.00;99802.41;7387262;19;21009;-69
2024/04/08 06:23:24;;;;;;;16.98;6.15;;;;;;;16.30;100.00;99815.16;7386230;19;20014;-72
2024/04/08 06:26:00;;;;;;;14.27;5.22;;;;;;;16.30;100.00;99809.81;7381736;19;20407;-70
2024/04/08 06:28:25;;;;;;;17.70;5.82;;;;;;;16.20;100.00;99800.00;7382683;19;20049;-69
2024/04/08 06:30:51;;;;;;;12.65;4.93;;;;;;;16.24;100.00;99796.09;7384226;19;20014;-69
2024/04/08 06:33:17;;;;;;;12.73;5.28;;;;;;;16.37;100.00;99808.34;7384702;19;20017;-69
2024/04/08 06:35:44;;;;;;;17.63;5.43;;;;;;;16.39;100.00;99808.22;7380668;19;20002;-70
2024/04/08 06:38:10;;;;;;;15.88;5.75;;;;;;;16.56;100.00;99822.91;7385907;19;20046;-70
2024/04/08 06:40:36;;;;;;;16.90;5.30;;;;;;;16.58;100.00;99805.78;7387091;19;20489;-70
2024/04/08 06:43:01;;;;;;;14.95;5.78;;;;;;;16.69;100.00;99811.13;7384505;19;20014;-73
2024/04/08 06:45:27;;;;;;;12.95;5.10;;;;;;;16.78;100.00;99797.03;7377123;19;20500;-71
2024/04/08 06:47:53;;;;;;;15.65;5.43;;;;;;;17.02;100.00;99804.84;7384158;19;20023;-72
2024/04/08 06:50:18;;;;;;;13.00;5.00;;;;;;;16.88;100.00;99746.28;7385605;19;20021;-70
2024/04/08 06:52:44;;;;;;;17.60;5.13;;;;;;;17.43;100.00;99801.38;7382264;19;20014;-70
2024/04/08 06:55:09;;;;;;;15.88;4.28;;;;;;;17.54;100.00;99779.03;7380100;19;20010;-71
2024/04/08 06:57:36;;;;;;;16.48;4.80;;;;;;;17.59;100.00;99741.19;7382130;19;20010;-72
2024/04/08 07:00:03;;;;;;;10.38;4.70;;;;;;;18.01;100.00;99782.16;7385558;19;20063;-71
2024/04/08 07:02:30;;;;;;;10.48;4.13;;;;;;;18.37;100.00;99794.16;7383193;19;20026;-70
2024/04/08 07:04:56;;;;;;;13.35;4.10;;;;;;;18.53;100.00;99783.75;7379719;19;20046;-70
2024/04/08 07:07:22;;;;;;;13.00;3.92;;;;;;;18.58;100.00;99781.50;7380948;19;20491;-70
2024/04/08 07:09:47;;;;;;;9.77;3.92;;;;;;;18.84;100.00;99785.41;7382498;19;20034;-71
2024/04/08 07:12:13;;;;;;;8.57;3.50;;;;;;;19.15;100.00;99798.69;7386321;19;20391;-71
2024/04/08 07:14:38;;;;;;;13.13;3.85;;;;;;;19.13;100.00;99785.41;7391739;19;20029;-69
2024/04/08 07:17:04;;;;;;;11.90;3.45;;;;;;;19.06;100.00;99759.25;7367090;19;20014;-70
2024/04/08 07:19:30;;;;;;;11.77;3.70;;;;;;;19.22;100.00;99764.91;7394544;19;20007;-69
2024/04/08 07:21:55;;;;;;;14.15;3.60;;;;;;;19.60;100.00;99798.97;7391867;19;20046;-71
2024/04/08 07:24:21;;;;;;;10.82;3.85;;;;;;;19.44;99.71;99744.97;7390553;19;20032;-69
2024/04/08 07:26:47;;;;;;;10.13;3.22;;;;;;;20.00;100.00;99800.56;7389494;19;20014;-72
2024/04/08 07:29:13;;;;;;;6.93;2.75;;;;;;;19.90;87.91;99753.06;7390484;19;20059;-72
2024/04/08 07:31:39;;;;;;;10.00;3.13;;;;;;;19.96;90.14;99768.63;7388391;19;20021;-70
2024/04/08 07:34:05;;;;;;;10.32;3.47;;;;;;;20.11;87.13;99776.22;7389330;19;20034;-70
2024/04/08 07:36:30;;;;;;;10.55;3.15;;;;;;;20.16;83.59;99779.28;7362457;19;20006;-72
2024/04/08 07:38:56;;;;;;;10.40;3.08;;;;;;;20.19;82.54;99758.31;7387998;19;20023;-70
2024/04/08 07:41:22;;;;;;;12.73;2.92;;;;;;;20.51;79.38;99767.81;7384346;19;20506;-72
2024/04/08 07:43:48;;;;;;;9.77;2.60;;;;;;;20.67;76.11;99789.53;7385571;19;20359;-71
2024/04/08 07:46:14;;;;;;;11.60;2.80;;;;;;;20.43;74.91;99755.13;7382914;19;20006;-72
2024/04/08 07:48:39;;;;;;;10.50;2.85;;;;;;;20.72;75.45;99781.00;7385283;19;20039;-71
2024/04/08 07:51:05;;;;;;;12.00;2.80;;;;;;;20.72;74.84;99762.19;7391399;19;20475;-76
2024/04/08 07:53:32;;;;;;;9.25;2.75;;;;;;;20.91;72.80;99776.34;7391246;19;20017;-77
2024/04/08 07:55:59;;;;;;;10.35;2.90;;;;;;;20.76;72.11;99742.88;7385604;19;20339;-75
2024/04/08 07:58:26;;;;;;;9.90;2.40;;;;;;;21.08;70.58;99780.03;7385719;19;20016;-76
2024/04/08 08:00:56;;;;;;;8.35;2.70;;;;;;;21.18;67.21;99785.34;7388544;19;20018;-77
2024/04/08 08:03:23;;;;;;;8.70;2.50;;;;;;;21.12;64.81;99759.88;7389416;19;20003;-75
2024/04/08 08:05:48;;;;;;;9.32;2.85;;;;;;;21.32;63.93;99788.34;7384857;19;20022;-75
2024/04/08 08:08:14;;;;;;;8.50;2.38;;;;;;;21.35;61.07;99784.50;7383295;19;20015;-76
2024/04/08 08:10:39;;;;;;;9.85;2.33;;;;;;;21.34;60.23;99745.97;7389297;19;21063;-76
2024/04/08 08:13:05;;;;;;;8.27;2.78;;;;;;;21.64;58.21;99773.44;7386175;19;20006;-75
2024/04/08 08:15:30;;;;;;;5.57;1.80;;;;;;;21.84;57.79;99760.63;7386881;19;20017;-75
2024/04/08 08:17:56;;;;;;;9.98;2.22;;;;;;;22.08;57.06;99760.78;7385184;19;20057;-75
2024/04/08 08:20:21;;;;;;;7.75;2.40;;;;;;;22.24;55.46;99787.81;7386897;19;20007;-74
2024/04/08 08:22:48;;;;;;;6.55;2.08;;;;;;;21.92;54.18;99748.03;7387085;19;20539;-75
2024/04/08 08:25:14;;;;;;;8.55;2.20;;;;;;;21.62;53.71;99718.88;7388323;19;20030;-74
2024/04/08 08:27:40;;;;;;;16.15;2.25;;;;;;;21.73;53.65;99736.59;7383245;19;20018;-75
2024/04/08 08:30:07;;;;;;;7.47;2.22;;;;;;;22.05;52.78;99767.31;7387509;19;20033;-76
2024/04/08 08:32:33;;;;;;;9.02;1.83;;;;;;;22.07;53.32;99736.66;7388279;19;20018;-76
2024/04/08 08:34:58;;;;;;;9.23;2.20;;;;;;;22.57;50.86;99783.41;7386130;19;20690;-76
2024/04/08 08:37:25;;;;;;;5.05;1.77;;;;;;;22.88;49.33;99772.88;7383869;19;20022;-77
2024/04/08 08:39:51;;;;;;;10.23;2.20;;;;;;;22.42;47.77;99633.97;7386631;19;20014;-76
2024/04/08 08:42:21;;;;;;;10.27;2.28;;;;;;;23.40;46.14;99762.66;7387297;19;20010;-75
2024/04/08 08:44:54;;;;;;;;;;;;;;;23.60;45.78;99765.03;7385344;19;20015;-75
2024/04/08 08:47:22;;;;;;;10.20;1.95;;;;;;;23.87;45.52;99753.81;7386672;19;19930;-75
2024/04/08 08:49:54;;;;;;;13.23;2.10;;;;;;;24.28;44.29;99773.50;7387858;19;21185;-75
2024/04/08 08:52:21;;;;;;;6.57;1.95;;;;;;;24.33;43.58;99775.69;7385791;19;20384;-77
2024/04/08 08:54:51;;;;;;;11.27;2.25;;;;;;;24.08;44.49;99770.31;7385323;19;20359;-75
2024/04/08 08:57:18;;;;;;;9.40;2.20;;;;;;;23.58;45.41;99757.09;7383862;19;20039;-77
2024/04/08 08:59:45;;;;;;;6.85;2.05;;;;;;;23.56;44.96;99755.56;7386997;19;20416;-76
2024/04/08 09:02:13;;;;;;;9.10;1.80;;;;;;;23.37;45.07;99746.75;7385729;19;20459;-76
2024/04/08 09:04:41;;;;;;;8.07;2.20;;;;;;;23.34;45.50;99757.06;7385941;19;20011;-75
2024/04/08 09:07:07;;;;;;;9.00;2.35;;;;;;;23.36;45.63;99763.13;7381882;19;20555;-75
2024/04/08 09:09:33;;;;;;;10.27;2.20;;;;;;;23.48;44.70;99775.28;7380147;19;20013;-76
2024/04/08 09:11:59;;;;;;;11.48;2.30;;;;;;;23.03;44.28;99697.47;7385510;19;20018;-76
2024/04/08 09:14:30;;;;;;;8.95;2.10;;;;;;;23.43;45.47;99762.31;7386849;19;20017;-78
2024/04/08 09:17:10;;;;;;;10.23;2.55;;;;;;;23.26;44.87;99751.66;7384502;19;20360;-75
2024/04/08 09:19:36;;;;;;;10.75;2.17;;;;;;;22.88;44.98;99705.41;7391014;19;20353;-75
2024/04/08 09:22:05;;;;;;;12.30;2.08;;;;;;;22.94;45.81;99731.75;7391039;19;20018;-76
2024/04/08 09:24:33;;;;;;;7.60;2.28;;;;;;;23.06;46.01;99740.34;7389656;19;20089;-75
2024/04/08 09:26:59;;;;;;;6.97;1.80;;;;;;;23.27;44.82;99762.31;7369353;19;20036;-77
2024/04/08 09:29:25;;;;;;;13.13;2.38;;;;;;;23.28;45.62;99758.59;7400050;19;20010;-76
2024/04/08 09:31:50;;;;;;;7.95;1.85;;;;;;;22.92;44.73;99741.00;7389835;19;20483;-75
2024/04/08 09:34:18;;;;;;;9.00;2.03;;;;;;;22.54;46.06;99710.88;7389775;19;20569;-80
2024/04/08 09:36:45;;;;;;;7.93;2.13;;;;;;;22.80;46.33;99726.16;7391738;19;20359;-77
2024/04/08 09:39:16;;;;;;;9.15;2.28;;;;;;;23.13;45.29;99741.38;7395149;19;20017;-78
2024/04/08 09:41:44;;;;;;;8.27;1.77;;;;;;;23.32;43.99;99745.56;7400070;19;20363;-76
2024/04/08 09:44:13;;;;;;;8.00;2.00;;;;;;;23.53;44.18;99745.09;7403457;19;20973;-75
2024/04/08 09:46:42;;;;;;;6.45;1.52;;;;;;;23.64;44.00;99767.19;7387163;19;20589;-77
2024/04/08 09:49:11;;;;;;;9.40;2.78;;;;;;;23.60;43.37;99749.66;7395391;19;20030;-74
2024/04/08 09:51:42;;;;;;;9.27;2.03;;;;;;;23.81;43.38;99778.00;7388450;19;20015;-76
2024/04/08 09:54:08;;;;;;;11.82;2.60;;;;;;;23.78;43.07;99777.31;7387138;19;21394;-77
2024/04/08 09:56:36;;;;;;;8.15;2.05;;;;;;;23.62;43.00;99780.03;7386623;19;20006;-77
2024/04/08 09:59:10;;;;;;;10.00;2.42;;;;;;;23.43;43.65;99748.81;7391524;19;20010;-75
2024/04/08 10:01:38;;;;;;;9.57;1.95;;;;;;;23.52;43.51;99749.66;7393641;19;20126;-76
2024/04/08 10:04:14;;;;;;;9.85;2.50;;;;;;;23.88;43.42;99755.50;7393992;19;20019;-75
2024/04/08 10:06:42;;;;;;;9.13;2.22;;;;;;;24.06;42.92;99731.81;7392059;19;20035;-77
2024/04/08 10:09:09;;;;;;;11.45;2.40;;;;;;;24.21;42.77;99721.09;7389403;19;20018;-76
2024/04/08 10:11:35;;;;;;;12.38;2.15;;;;;;;23.81;42.10;99654.47;7391668;19;20017;-76
2024/04/08 10:14:01;;;;;;;11.77;2.50;;;;;;;23.89;42.50;99697.72;7393424;19;20018;-77
2024/04/08 10:16:30;;;;;;;11.55;2.40;;;;;;;24.09;42.57;99742.25;7394205;19;20013;-76
2024/04/08 10:18:57;;;;;;;9.52;2.22;;;;;;;24.02;43.60;99702.56;7389035;19;20010;-77
2024/04/08 10:21:26;;;;;;;10.80;2.20;;;;;;;24.04;43.05;99698.66;7396679;19;20011;-77
2024/04/08 10:23:53;;;;;;;8.73;2.42;;;;;;;24.53;43.47;99736.34;7403966;19;20035;-78
2024/04/08 10:26:23;;;;;;;11.45;2.75;;;;;;;24.31;41.82;99724.44;7393644;19;20037;-76
2024/04/08 10:28:49;;;;;;;11.90;2.25;;;;;;;24.22;41.58;99690.31;7395077;19;20014;-77
2024/04/08 10:31:19;;;;;;;13.25;2.78;;;;;;;24.60;41.67;99718.38;7370669;19;20006;-75
2024/04/08 10:33:45;;;;;;;13.20;2.33;;;;;;;24.37;41.26;99682.31;7393303;19;20017;-76
2024/04/08 10:36:10;;;;;;;11.50;3.20;;;;;;;24.60;41.63;99709.41;7395348;19;20013;-75
2024/04/08 10:38:36;;;;;;;14.50;3.33;;;;;;;24.40;41.82;99674.66;7410917;19;20127;-78
2024/04/08 10:41:06;;;;;;;14.52;2.53;;;;;;;24.80;41.59;99714.19;7411586;19;20014;-74
2024/04/08 10:43:32;;;;;;;13.88;2.40;;;;;;;24.69;41.36;99697.50;7408502;19;20038;-76
2024/04/08 10:45:58;;;;;;;9.38;2.72;;;;;;;24.89;40.84;99709.53;7394380;19;20014;-76
2024/04/08 10:48:24;;;;;;;9.27;3.08;;;;;;;25.16;40.68;99690.06;7389529;19;20692;-75
2024/04/08 10:50:50;;;;;;;10.82;2.80;;;;;;;25.33;40.06;99701.59;7388838;19;20085;-75
2024/04/08 10:53:15;;;;;;;13.60;3.30;;;;;;;25.39;40.02;99706.28;7392709;19;20054;-75
2024/04/08 10:55:41;;;;;;;14.05;3.30;;;;;;;25.15;40.08;99718.19;7395816;19;20019;-76
2024/04/08 10:58:11;;;;;;;12.93;2.30;;;;;;;24.94;39.79;99690.91;7388603;19;20075;-74
2024/04/08 11:00:36;;;;;;;11.57;2.40;;;;;;;25.09;38.96;99710.78;7392134;19;20014;-76
2024/04/08 11:03:03;;;;;;;7.32;2.38;;;;;;;25.07;39.23;99703.84;7394077;19;20056;-77
2024/04/08 11:05:29;;;;;;;8.85;2.72;;;;;;;25.27;39.54;99698.78;7394630;19;20026;-75
2024/04/08 11:07:58;;;;;;;11.00;2.72;;;;;;;25.27;38.99;99663.53;7388783;19;20011;-75
2024/04/08 11:10:24;;;;;;;11.25;2.72;;;;;;;25.35;38.87;99664.28;7400930;19;20015;-75
2024/04/08 11:12:50;;;;;;;14.85;2.33;;;;;;;25.09;38.39;99645.75;7402381;19;20122;-76
2024/04/08 11:15:16;;;;;;;13.73;3.53;;;;;;;25.32;38.29;99675.53;7400329;19;20027;-76
2024/04/08 11:17:41;;;;;;;12.50;3.90;;;;;;;25.63;38.75;99704.41;7386209;19;20102;-76
2024/04/08 11:20:12;;;;;;;13.77;2.70;;;;;;;25.85;37.75;99663.59;7391498;19;20402;-75
2024/04/08 11:22:38;;;;;;;13.60;3.03;;;;;;;26.10;37.74;99679.59;7391025;19;20015;-75